createdAt,value
2023-02-25T00:01:26.252Z,2.76
2023-02-25T00:03:59.258Z,2.75
2023-02-25T00:06:33.414Z,2.78
2023-02-25T00:09:06.452Z,2.77
2023-02-25T00:11:39.382Z,2.77
2023-02-25T00:14:12.369Z,2.83
2023-02-25T00:16:45.591Z,2.87
2023-02-25T00:19:18.472Z,2.88
2023-02-25T00:21:52.852Z,2.84
2023-02-25T00:24:25.744Z,2.83
2023-02-25T00:26:58.671Z,2.87
2023-02-25T00:29:31.950Z,2.90
2023-02-25T00:32:04.952Z,2.89
2023-02-25T00:34:37.959Z,2.85
2023-02-25T00:37:12.100Z,2.81
2023-02-25T00:39:45.625Z,2.77
2023-02-25T00:42:19.651Z,2.76
2023-02-25T00:44:52.490Z,2.77
2023-02-25T00:47:25.326Z,2.69
2023-02-25T00:49:58.325Z,2.69
2023-02-25T00:52:33.749Z,2.74
2023-02-25T00:55:06.937Z,2.74
2023-02-25T00:57:39.977Z,2.79
2023-02-25T01:00:16.277Z,2.83
2023-02-25T01:02:49.168Z,2.91
2023-02-25T01:05:21.962Z,2.96
2023-02-25T01:07:56.279Z,2.94
2023-02-25T01:10:29.777Z,2.93
2023-02-25T01:13:04.792Z,2.94
2023-02-25T01:15:38.329Z,2.93
2023-02-25T01:18:11.202Z,2.99
2023-02-25T01:20:44.003Z,3.00
2023-02-25T01:23:18.676Z,2.98
2023-02-25T01:25:51.447Z,2.94
2023-02-25T01:28:24.318Z,2.93
2023-02-25T01:30:57.723Z,2.93
2023-02-25T01:33:30.605Z,2.89
2023-02-25T01:36:03.457Z,2.99
2023-02-25T01:38:37.838Z,2.95
2023-02-25T01:41:10.680Z,2.99
2023-02-25T01:43:44.152Z,3.01
2023-02-25T01:46:17.156Z,3.02
2023-02-25T01:48:50.442Z,3.15
2023-02-25T01:51:27.079Z,3.03
2023-02-25T01:54:03.660Z,2.99
2023-02-25T01:56:38.122Z,2.98
2023-02-25T01:59:13.535Z,2.94
2023-02-25T02:01:46.466Z,2.96
2023-02-25T02:04:23.054Z,2.94
2023-02-25T02:06:57.217Z,2.96
2023-02-25T02:09:32.537Z,2.95
2023-02-25T02:12:07.981Z,2.98
2023-02-25T02:14:43.180Z,2.99
2023-02-25T02:17:22.052Z,2.98
2023-02-25T02:20:10.233Z,2.98
2023-02-25T02:22:54.949Z,3.01
2023-02-25T02:26:04.939Z,3.00
2023-02-25T02:29:07.519Z,3.01
2023-02-25T02:31:55.807Z,2.99
2023-02-25T02:34:41.260Z,2.96
2023-02-25T02:37:21.743Z,2.98
2023-02-25T02:40:14.907Z,2.98
2023-02-25T02:42:58.372Z,2.99
2023-02-25T02:45:40.089Z,3.01
2023-02-25T02:48:20.207Z,3.01
2023-02-25T02:50:58.269Z,3.02
2023-02-25T02:53:37.580Z,3.01
2023-02-25T02:56:14.279Z,3.02
2023-02-25T02:58:53.840Z,3.02
2023-02-25T03:01:31.499Z,3.04
2023-02-25T03:04:09.996Z,3.09
2023-02-25T03:06:46.758Z,3.12
2023-02-25T03:09:22.418Z,3.16
2023-02-25T03:11:56.441Z,3.10
2023-02-25T03:14:29.247Z,3.07
2023-02-25T03:17:08.316Z,3.06
2023-02-25T03:19:46.745Z,3.10
2023-02-25T03:22:27.712Z,3.10
2023-02-25T03:25:06.572Z,3.07
2023-02-25T03:27:43.505Z,3.11
2023-02-25T03:30:25.511Z,3.08
2023-02-25T03:33:02.267Z,3.11
2023-02-25T03:35:39.969Z,3.10
2023-02-25T03:38:20.529Z,3.11
2023-02-25T03:40:56.302Z,3.11
2023-02-25T03:43:34.413Z,3.12
2023-02-25T03:46:08.683Z,3.14
2023-02-25T03:48:42.465Z,3.13
2023-02-25T03:51:22.431Z,3.11
2023-02-25T03:53:55.578Z,3.12
2023-02-25T03:56:43.305Z,3.10
2023-02-25T03:59:17.807Z,3.10
2023-02-25T04:01:53.152Z,3.10
2023-02-25T04:04:26.238Z,3.09
2023-02-25T04:07:00.493Z,3.11
2023-02-25T04:09:33.771Z,3.12
2023-02-25T04:12:08.114Z,3.17
2023-02-25T04:14:40.942Z,3.17
2023-02-25T04:17:14.604Z,3.22
2023-02-25T04:19:47.390Z,3.19
2023-02-25T04:22:21.524Z,3.26
2023-02-25T04:24:54.356Z,3.17
2023-02-25T04:27:27.382Z,3.21
2023-02-25T04:30:00.565Z,3.22
2023-02-25T04:32:33.515Z,3.21
2023-02-25T04:35:11.514Z,3.20
2023-02-25T04:37:45.678Z,3.20
2023-02-25T04:40:20.827Z,3.20
2023-02-25T04:42:53.639Z,3.18
2023-02-25T04:45:27.176Z,3.19
2023-02-25T04:48:00.366Z,3.15
2023-02-25T04:50:33.204Z,3.21
2023-02-25T04:53:07.560Z,3.14
2023-02-25T04:55:42.279Z,3.12
2023-02-25T04:58:15.100Z,3.11
2023-02-25T05:00:49.293Z,3.08
2023-02-25T05:03:22.122Z,3.07
2023-02-25T05:05:55.772Z,3.10
2023-02-25T05:08:29.944Z,3.11
2023-02-25T05:11:03.541Z,3.15
2023-02-25T05:13:36.356Z,3.11
2023-02-25T05:16:12.059Z,3.12
2023-02-25T05:18:47.350Z,3.13
2023-02-25T05:21:21.853Z,3.18
2023-02-25T05:23:56.041Z,3.16
2023-02-25T05:26:29.050Z,3.22
2023-02-25T05:29:01.916Z,3.17
2023-02-25T05:31:34.851Z,3.22
2023-02-25T05:34:07.829Z,3.16
2023-02-25T05:36:41.184Z,3.18
2023-02-25T05:39:15.514Z,3.11
2023-02-25T05:41:48.855Z,3.12
2023-02-25T05:44:22.128Z,3.12
2023-02-25T05:46:55.035Z,3.19
2023-02-25T05:49:27.810Z,3.19
2023-02-25T05:52:00.659Z,3.18
2023-02-25T05:54:34.838Z,3.14
2023-02-25T05:57:07.962Z,3.14
2023-02-25T05:59:40.831Z,3.16
2023-02-25T06:02:13.863Z,3.08
2023-02-25T06:04:47.881Z,3.18
2023-02-25T06:07:20.686Z,3.17
2023-02-25T06:09:55.122Z,3.17
2023-02-25T06:12:27.964Z,3.17
2023-02-25T06:15:01.327Z,3.15
2023-02-25T06:17:34.236Z,3.14
2023-02-25T06:20:08.855Z,3.12
2023-02-25T06:22:41.782Z,3.13
2023-02-25T06:25:15.969Z,3.16
2023-02-25T06:27:48.893Z,3.18
2023-02-25T06:30:21.681Z,3.16
2023-02-25T06:32:54.923Z,3.16
2023-02-25T06:35:28.687Z,3.17
2023-02-25T06:38:01.583Z,3.18
2023-02-25T06:40:35.740Z,3.24
2023-02-25T06:43:08.618Z,3.24
2023-02-25T06:45:42.069Z,3.23
2023-02-25T06:48:15.056Z,3.30
2023-02-25T06:50:47.872Z,3.35
2023-02-25T06:53:20.771Z,3.33
2023-02-25T06:55:54.946Z,3.36
2023-02-25T06:58:27.920Z,3.28
2023-02-25T07:01:01.036Z,3.21
2023-02-25T07:03:33.862Z,3.20
2023-02-25T07:06:08.792Z,3.21
2023-02-25T07:08:41.818Z,3.20
2023-02-25T07:11:29.064Z,3.16
2023-02-25T07:14:02.270Z,3.11
2023-02-25T07:16:35.278Z,3.10
2023-02-25T07:19:08.377Z,3.15
2023-02-25T07:21:41.710Z,3.14
2023-02-25T07:24:14.543Z,3.15
2023-02-25T07:26:48.684Z,3.17
2023-02-25T07:29:21.505Z,3.07
2023-02-25T07:31:54.423Z,3.21
2023-02-25T07:34:27.514Z,3.22
2023-02-25T07:37:00.447Z,3.21
2023-02-25T07:39:33.218Z,3.22
2023-02-25T07:42:07.404Z,3.23
2023-02-25T07:44:42.251Z,3.25
2023-02-25T07:47:15.467Z,3.30
2023-02-25T07:49:48.436Z,3.30
2023-02-25T07:52:21.518Z,3.32
2023-02-25T07:54:54.314Z,3.38
2023-02-25T07:57:29.025Z,3.45
2023-02-25T08:00:01.880Z,3.52
2023-02-25T08:02:45.802Z,3.55
2023-02-25T08:05:21.832Z,3.52
2023-02-25T08:07:54.667Z,3.63
2023-02-25T08:10:27.800Z,3.69
2023-02-25T08:13:02.052Z,3.64
2023-02-25T08:15:35.041Z,3.75
2023-02-25T08:18:07.882Z,3.71
2023-02-25T08:20:40.679Z,3.70
2023-02-25T08:23:13.617Z,3.74
2023-02-25T08:25:46.410Z,3.81
2023-02-25T08:28:20.526Z,3.73
2023-02-25T08:30:55.061Z,3.84
2023-02-25T08:33:29.819Z,3.74
2023-02-25T08:36:14.381Z,3.72
2023-02-25T08:38:47.518Z,3.76
2023-02-25T08:41:21.523Z,3.75
2023-02-25T08:43:57.499Z,3.69
2023-02-25T08:46:32.961Z,3.76
2023-02-25T08:49:06.878Z,3.77
2023-02-25T08:51:40.688Z,3.75
2023-02-25T08:54:15.001Z,3.79
2023-02-25T08:56:51.158Z,3.88
2023-02-25T08:59:25.210Z,3.96
2023-02-25T09:01:58.698Z,3.95
2023-02-25T09:04:31.510Z,4.04
2023-02-25T09:07:04.496Z,4.04
2023-02-25T09:09:37.293Z,4.26
2023-02-25T09:12:10.784Z,4.50
2023-02-25T09:14:44.874Z,4.52
2023-02-25T09:17:17.972Z,4.62
2023-02-25T09:19:50.884Z,4.41
2023-02-25T09:22:23.946Z,4.20
2023-02-25T09:24:57.135Z,4.37
2023-02-25T09:27:29.893Z,4.49
2023-02-25T09:30:04.593Z,4.41
2023-02-25T09:32:37.644Z,4.38
2023-02-25T09:35:12.370Z,4.50
2023-02-25T09:37:45.205Z,4.21
2023-02-25T09:40:22.684Z,3.94
2023-02-25T09:43:07.451Z,3.69
2023-02-25T09:45:47.113Z,3.96
2023-02-25T09:48:25.742Z,4.32
2023-02-25T09:51:04.826Z,4.29
2023-02-25T09:53:42.589Z,4.24
2023-02-25T09:56:17.714Z,4.11
2023-02-25T09:58:56.068Z,4.06
2023-02-25T10:01:36.620Z,3.98
2023-02-25T10:04:17.252Z,3.47
2023-02-25T10:06:52.627Z,3.46
2023-02-25T10:09:33.377Z,3.75
2023-02-25T10:12:14.326Z,4.01
2023-02-25T10:15:00.753Z,4.43
2023-02-25T10:17:46.413Z,4.24
2023-02-25T10:20:44.294Z,4.23
2023-02-25T10:23:31.173Z,4.45
2023-02-25T10:26:07.213Z,4.98
2023-02-25T10:28:42.933Z,5.66
2023-02-25T10:31:19.270Z,5.52
2023-02-25T10:33:54.710Z,5.45
2023-02-25T10:36:31.955Z,4.79
2023-02-25T10:39:05.270Z,4.73
2023-02-25T10:41:38.756Z,4.38
2023-02-25T10:44:14.013Z,4.35
2023-02-25T10:46:54.204Z,4.81
2023-02-25T10:49:30.189Z,5.15
2023-02-25T10:52:06.171Z,5.09
2023-02-25T10:54:48.046Z,5.69
2023-02-25T10:57:27.355Z,5.68
2023-02-25T11:00:01.627Z,5.55
2023-02-25T11:02:42.268Z,5.71
2023-02-25T11:05:32.372Z,5.48
2023-02-25T11:08:08.000Z,5.31
2023-02-25T11:10:40.845Z,4.80
2023-02-25T11:13:29.042Z,4.66
2023-02-25T11:16:07.024Z,4.33
2023-02-25T11:18:40.971Z,4.39
2023-02-25T11:21:16.133Z,5.01
2023-02-25T11:23:51.002Z,5.60
2023-02-25T11:26:30.162Z,5.91
2023-02-25T11:29:07.859Z,6.50
2023-02-25T11:31:43.440Z,6.33
2023-02-25T11:34:22.391Z,6.27
2023-02-25T11:36:59.081Z,6.91
2023-02-25T11:39:32.477Z,6.21
2023-02-25T11:42:24.124Z,5.56
2023-02-25T11:45:01.378Z,5.83
2023-02-25T11:47:38.242Z,6.25
2023-02-25T11:50:24.924Z,6.46
2023-02-25T11:53:09.091Z,6.54
2023-02-25T11:55:53.676Z,6.16
2023-02-25T11:58:40.140Z,6.64
2023-02-25T12:01:20.018Z,6.58
2023-02-25T12:04:09.441Z,6.84
2023-02-25T12:07:14.495Z,6.53
2023-02-25T12:10:18.967Z,6.74
2023-02-25T12:13:13.590Z,6.77
2023-02-25T12:16:21.255Z,6.82
2023-02-25T12:19:17.605Z,6.34
2023-02-25T12:22:15.173Z,6.78
2023-02-25T12:25:03.695Z,6.85
2023-02-25T12:27:52.380Z,6.43
2023-02-25T12:30:55.976Z,6.47
2023-02-25T12:33:48.159Z,5.81
2023-02-25T12:36:35.593Z,6.68
2023-02-25T12:39:20.528Z,7.29
2023-02-25T12:42:05.441Z,7.05
2023-02-25T12:45:05.569Z,7.68
2023-02-25T12:47:53.836Z,7.09
2023-02-25T12:50:44.439Z,7.97
2023-02-25T12:53:31.854Z,7.53
2023-02-25T12:56:24.876Z,7.39
2023-02-25T12:59:18.368Z,7.28
2023-02-25T13:02:19.728Z,7.52
2023-02-25T13:05:10.496Z,7.43
2023-02-25T13:08:21.060Z,7.52
2023-02-25T13:10:59.914Z,8.17
2023-02-25T13:13:59.918Z,8.17
2023-02-25T13:16:52.604Z,8.57
2023-02-25T13:20:00.074Z,8.67
2023-02-25T13:22:44.941Z,8.15
2023-02-25T13:25:25.504Z,8.20
2023-02-25T13:28:11.758Z,8.12
2023-02-25T13:30:52.072Z,8.48
2023-02-25T13:33:58.706Z,8.81
2023-02-25T13:36:47.082Z,9.27
2023-02-25T13:39:36.686Z,8.83
2023-02-25T13:42:28.187Z,8.59
2023-02-25T13:45:30.271Z,9.08
2023-02-25T13:48:23.332Z,8.10
2023-02-25T13:51:12.464Z,7.80
2023-02-25T13:54:07.646Z,8.43
2023-02-25T13:56:52.878Z,8.28
2023-02-25T13:59:56.159Z,7.94
2023-02-25T14:03:15.895Z,8.65
2023-02-25T14:06:03.234Z,8.24
2023-02-25T14:08:54.482Z,8.91
2023-02-25T14:11:43.602Z,8.91
2023-02-25T14:14:37.087Z,8.37
2023-02-25T14:17:25.737Z,8.27
2023-02-25T14:20:13.103Z,8.92
2023-02-25T14:22:50.795Z,8.78
2023-02-25T14:25:45.640Z,8.38
2023-02-25T14:28:32.009Z,8.29
2023-02-25T14:31:15.587Z,8.83
2023-02-25T14:34:32.669Z,9.47
2023-02-25T14:37:22.120Z,8.58
2023-02-25T14:40:08.642Z,9.41
2023-02-25T14:43:08.046Z,9.46
2023-02-25T14:45:46.032Z,9.04
2023-02-25T14:48:26.565Z,8.81
2023-02-25T14:51:17.710Z,9.05
2023-02-25T14:54:22.951Z,9.90
2023-02-25T14:57:13.571Z,10.38
